地図

経路データ

SID SEASON NUMBER BASIN SUBBASIN NAME ISO_TIME NATURE LAT LON WMO_WIND WMO_PRES WMO_AGENCY TRACK_TYPE DIST2LAND LANDFALL IFLAG USA_AGENCY USA_ATCF_ID USA_LAT USA_LON USA_RECORD USA_STATUS USA_WIND USA_PRES USA_SSHS USA_R34_NE USA_R34_SE USA_R34_SW USA_R34_NW USA_R50_NE USA_R50_SE USA_R50_SW USA_R50_NW USA_R64_NE USA_R64_SE USA_R64_SW USA_R64_NW USA_POCI USA_ROCI USA_RMW USA_EYE TOKYO_LAT TOKYO_LON TOKYO_GRADE TOKYO_WIND TOKYO_PRES TOKYO_R50_DIR TOKYO_R50_LONG TOKYO_R50_SHORT TOKYO_R30_DIR TOKYO_R30_LONG TOKYO_R30_SHORT TOKYO_LAND CMA_LAT CMA_LON CMA_CAT CMA_WIND CMA_PRES HKO_LAT HKO_LON HKO_CAT HKO_WIND HKO_PRES NEWDELHI_LAT NEWDELHI_LON NEWDELHI_GRADE NEWDELHI_WIND NEWDELHI_PRES NEWDELHI_CI NEWDELHI_DP NEWDELHI_POCI REUNION_LAT REUNION_LON REUNION_TYPE REUNION_WIND REUNION_PRES REUNION_TNUM REUNION_CI REUNION_RMW REUNION_R34_NE REUNION_R34_SE REUNION_R34_SW REUNION_R34_NW REUNION_R50_NE REUNION_R50_SE REUNION_R50_SW REUNION_R50_NW REUNION_R64_NE REUNION_R64_SE REUNION_R64_SW REUNION_R64_NW BOM_LAT BOM_LON BOM_TYPE BOM_WIND BOM_PRES BOM_TNUM BOM_CI BOM_RMW BOM_R34_NE BOM_R34_SE BOM_R34_SW BOM_R34_NW BOM_R50_NE BOM_R50_SE BOM_R50_SW BOM_R50_NW BOM_R64_NE BOM_R64_SE BOM_R64_SW BOM_R64_NW BOM_ROCI BOM_POCI BOM_EYE BOM_POS_METHOD BOM_PRES_METHOD NADI_LAT NADI_LON NADI_CAT NADI_WIND NADI_PRES WELLINGTON_LAT WELLINGTON_LON WELLINGTON_WIND WELLINGTON_PRES DS824_LAT DS824_LON DS824_STAGE DS824_WIND DS824_PRES TD9636_LAT TD9636_LON TD9636_STAGE TD9636_WIND TD9636_PRES TD9635_LAT TD9635_LON TD9635_WIND TD9635_PRES TD9635_ROCI NEUMANN_LAT NEUMANN_LON NEUMANN_CLASS NEUMANN_WIND NEUMANN_PRES MLC_LAT MLC_LON MLC_CLASS MLC_WIND MLC_PRES USA_GUST BOM_GUST BOM_GUST_PER REUNION_GUST REUNION_GUST_PER USA_SEAHGT USA_SEARAD_NE USA_SEARAD_SE USA_SEARAD_SW USA_SEARAD_NW STORM_SPEED STORM_DIR
1852271N15328 1852 12 NA NA NOT_NAMED 1852-09-26 12:00:00 TS 15.0000 -31.9000 main 1548 1548 _____________O -1 15.0000 -31.9000 TS 35 10 300
1852271N15328 1852 12 NA NA NOT_NAMED 1852-09-26 15:00:00 TS 15.2502 -32.3548 main 1602 1602 _____________P -1 15.2502 -32.3548 TS 35 10 300
1852271N15328 1852 12 NA NA NOT_NAMED 1852-09-26 18:00:00 TS 15.5000 -32.8000 main 1645 1645 _____________O -1 15.5000 -32.8000 TS 35 10 301
1852271N15328 1852 12 NA NA NOT_NAMED 1852-09-26 21:00:00 TS 15.7500 -33.2226 main 1688 1688 _____________P -1 15.7500 -33.2226 TS 35 9 303
1852271N15328 1852 12 NA NA NOT_NAMED 1852-09-27 00:00:00 TS 16.0000 -33.6000 main 1732 1732 _____________O -1 16.0000 -33.6000 TS 35 8 307
1852271N15328 1852 12 NA NA NOT_NAMED 1852-09-27 03:00:00 TS 16.2499 -33.9226 main 1765 1765 _____________P -1 16.2499 -33.9226 TS 35 8 311
1852271N15328 1852 12 NA NA NOT_NAMED 1852-09-27 06:00:00 TS 16.5000 -34.2000 main 1799 1799 _____________O -1 16.5000 -34.2000 TS 35 7 315
1852271N15328 1852 12 NA NA NOT_NAMED 1852-09-27 09:00:00 TS 16.7499 -34.4501 main 1833 1833 _____________P -1 16.7499 -34.4501 TS 35 7 316
1852271N15328 1852 12 NA NA NOT_NAMED 1852-09-27 12:00:00 TS 17.0000 -34.7000 main 1857 1857 _____________O -1 17.0000 -34.7000 TS 35 7 314
1852271N15328 1852 12 NA NA NOT_NAMED 1852-09-27 15:00:00 TS 17.2500 -35.0000 main 1892 1892 _____________P -1 17.2500 -35.0000 TS 35 8 311
1852271N15328 1852 12 NA NA NOT_NAMED 1852-09-27 18:00:00 TS 17.5000 -35.3000 main 1927 1927 _____________O -1 17.5000 -35.3000 TS 35 7 312
1852271N15328 1852 12 NA NA NOT_NAMED 1852-09-27 21:00:00 TS 17.7350 -35.5651 main 1961 1961 _____________P -1 17.7350 -35.5651 TS 35 7 316
1852271N15328 1852 12 NA NA NOT_NAMED 1852-09-28 00:00:00 TS 18.0000 -35.8000 main 1984 1982 _____________O -1 18.0000 -35.8000 TS 35 7 325
1852271N15328 1852 12 NA NA NOT_NAMED 1852-09-28 03:00:00 TS 18.3350 -36.0076 main 1998 1996 _____________P -1 18.3350 -36.0076 TS 35 8 332
1852271N15328 1852 12 NA NA NOT_NAMED 1852-09-28 06:00:00 TS 18.7000 -36.2000 main 2011 2009 _____________O -1 18.7000 -36.2000 TS 35 8 333
1852271N15328 1852 12 NA NA NOT_NAMED 1852-09-28 09:00:00 TS 19.0500 -36.4001 main 2026 2024 _____________P -1 19.0500 -36.4001 TS 35 8 332
1852271N15328 1852 12 NA NA NOT_NAMED 1852-09-28 12:00:00 TS 19.4000 -36.6000 main 2040 2039 _____________O -1 19.4000 -36.6000 TS 35 8 332
1852271N15328 1852 12 NA NA NOT_NAMED 1852-09-28 15:00:00 TS 19.7575 -36.8001 main 2056 2056 _____________P -1 19.7575 -36.8001 TS 35 8 332
1852271N15328 1852 12 NA NA NOT_NAMED 1852-09-28 18:00:00 TS 20.1000 -37.0000 main 2073 2072 _____________O -1 20.1000 -37.0000 TS 35 7 329
1852271N15328 1852 12 NA NA NOT_NAMED 1852-09-28 21:00:00 TS 20.3925 -37.2076 main 2090 2090 _____________P -1 20.3925 -37.2076 TS 37 7 328
1852271N15328 1852 12 NA NA NOT_NAMED 1852-09-29 00:00:00 TS 20.7000 -37.4000 main 2109 2108 _____________O -1 20.7000 -37.4000 TS 40 8 335
1852271N15328 1852 12 NA NA NOT_NAMED 1852-09-29 03:00:00 TS 21.0925 -37.5650 main 2127 2126 _____________P -1 21.0925 -37.5650 TS 40 9 341
1852271N15328 1852 12 NA NA NOT_NAMED 1852-09-29 06:00:00 TS 21.5000 -37.7000 main 2135 2135 _____________O -1 21.5000 -37.7000 TS 40 8 343
1852271N15328 1852 12 NA NA NOT_NAMED 1852-09-29 09:00:00 TS 21.8425 -37.8077 main 2145 2143 _____________P -1 21.8425 -37.8077 TS 40 7 345
1852271N15328 1852 12 NA NA NOT_NAMED 1852-09-29 12:00:00 TS 22.2000 -37.9000 main 2152 2151 _____________O -1 22.2000 -37.9000 TS 40 8 348
1852271N15328 1852 12 NA NA NOT_NAMED 1852-09-29 15:00:00 TS 22.6575 -38.0000 main 2161 2160 _____________P -1 22.6575 -38.0000 TS 40 9 348
1852271N15328 1852 12 NA NA NOT_NAMED 1852-09-29 18:00:00 TS 23.1000 -38.1000 main 2170 2170 _____________O -1 23.1000 -38.1000 TS 40 8 346
1852271N15328 1852 12 NA NA NOT_NAMED 1852-09-29 21:00:00 TS 23.4225 -38.2075 main 2180 2180 _____________P -1 23.4225 -38.2075 TS 42 6 343
1852271N15328 1852 12 NA NA NOT_NAMED 1852-09-30 00:00:00 TS 23.7000 -38.3000 main 2191 2191 _____________O -1 23.7000 -38.3000 TS 45 6 347
1852271N15328 1852 12 NA NA NOT_NAMED 1852-09-30 03:00:00 TS 24.0000 -38.3576 main 2202 2192 _____________P -1 24.0000 -38.3576 TS 45 6 352
1852271N15328 1852 12 NA NA NOT_NAMED 1852-09-30 06:00:00 TS 24.3000 -38.4000 main 2192 2183 _____________O -1 24.3000 -38.4000 TS 45 6 352
1852271N15328 1852 12 NA NA NOT_NAMED 1852-09-30 09:00:00 TS 24.6000 -38.4575 main 2193 2184 _____________P -1 24.6000 -38.4575 TS 45 6 352
1852271N15328 1852 12 NA NA NOT_NAMED 1852-09-30 12:00:00 TS 24.9000 -38.5000 main 2184 2176 _____________O -1 24.9000 -38.5000 TS 45 6 356
1852271N15328 1852 12 NA NA NOT_NAMED 1852-09-30 15:00:00 TS 25.2075 -38.5076 main 2176 2168 _____________P -1 25.2075 -38.5076 TS 45 6 1
1852271N15328 1852 12 NA NA NOT_NAMED 1852-09-30 18:00:00 TS 25.5000 -38.5000 main 2168 2163 _____________O -1 25.5000 -38.5000 TS 45 5 0
1852271N15328 1852 12 NA NA NOT_NAMED 1852-09-30 21:00:00 TS 25.7500 -38.5000 main 2161 2156 _____________P -1 25.7500 -38.5000 TS 47 5 2
1852271N15328 1852 12 NA NA NOT_NAMED 1852-10-01 00:00:00 TS 26.0000 -38.5000 main 2156 2150 _____________O -1 26.0000 -38.5000 TS 50 5 0
1852271N15328 1852 12 NA NA NOT_NAMED 1852-10-01 03:00:00 TS 26.2925 -38.5000 main 2150 2144 _____________P -1 26.2925 -38.5000 TS 50 6 1
1852271N15328 1852 12 NA NA NOT_NAMED 1852-10-01 06:00:00 TS 26.6000 -38.5000 main 2144 2138 _____________O -1 26.6000 -38.5000 TS 50 6 358
1852271N15328 1852 12 NA NA NOT_NAMED 1852-10-01 09:00:00 TS 26.9000 -38.5149 main 2138 2133 _____________P -1 26.9000 -38.5149 TS 50 6 1
1852271N15328 1852 12 NA NA NOT_NAMED 1852-10-01 12:00:00 TS 27.2000 -38.5000 main 2133 2119 _____________O -1 27.2000 -38.5000 TS 50 6 9
1852271N15328 1852 12 NA NA NOT_NAMED 1852-10-01 15:00:00 TS 27.5000 -38.4076 main 2119 2105 _____________P -1 27.5000 -38.4076 TS 50 6 16
1852271N15328 1852 12 NA NA NOT_NAMED 1852-10-01 18:00:00 TS 27.8000 -38.3000 main 2105 2101 _____________O -1 27.8000 -38.3000 TS 50 6 13
1852271N15328 1852 12 NA NA NOT_NAMED 1852-10-01 21:00:00 TS 28.0925 -38.2498 main 2092 2088 _____________P -1 28.0925 -38.2498 TS 52 6 8
1852271N15328 1852 12 NA NA NOT_NAMED 1852-10-02 00:00:00 TS 28.4000 -38.2000 main 2088 2076 _____________O -1 28.4000 -38.2000 TS 55 7 11
1852271N15328 1852 12 NA NA NOT_NAMED 1852-10-02 03:00:00 TS 28.7425 -38.1075 main 2076 2064 _____________P -1 28.7425 -38.1075 TS 55 7 14
1852271N15328 1852 12 NA NA NOT_NAMED 1852-10-02 06:00:00 TS 29.1000 -38.0000 main 2064 2053 _____________O -1 29.1000 -38.0000 TS 55 7 13
1852271N15328 1852 12 NA NA NOT_NAMED 1852-10-02 09:00:00 TS 29.4499 -37.9222 main 2053 2042 _____________P -1 29.4499 -37.9222 TS 55 7 14
1852271N15328 1852 12 NA NA NOT_NAMED 1852-10-02 12:00:00 TS 29.8000 -37.8000 main 2042 2023 _____________O -1 29.8000 -37.8000 TS 55 8 24
1852271N15328 1852 12 NA NA NOT_NAMED 1852-10-02 15:00:00 TS 30.1501 -37.5651 main 2023 1995 _____________P -1 30.1501 -37.5651 TS 55 8 32
1852271N15328 1852 12 NA NA NOT_NAMED 1852-10-02 18:00:00 TS 30.5000 -37.3000 main 1995 1977 _____________O -1 30.5000 -37.3000 TS 55 8 30
1852271N15328 1852 12 NA NA NOT_NAMED 1852-10-02 21:00:00 TS 30.8424 -37.1070 main 1977 1960 _____________P -1 30.8424 -37.1070 TS 57 8 26
1852271N15328 1852 12 NA NA NOT_NAMED 1852-10-03 00:00:00 TS 31.2000 -36.9000 main 1961 1937 _____________O -1 31.2000 -36.9000 TS 60 9 29
1852271N15328 1852 12 NA NA NOT_NAMED 1852-10-03 03:00:00 TS 31.6001 -36.6077 main 1937 1912 _____________P -1 31.6001 -36.6077 TS 60 10 33
1852271N15328 1852 12 NA NA NOT_NAMED 1852-10-03 06:00:00 TS 32.0000 -36.3000 main 1914 1898 _____________O -1 32.0000 -36.3000 TS 60 9 32
1852271N15328 1852 12 NA NA NOT_NAMED 1852-10-03 09:00:00 TS 32.3498 -36.0569 main 1900 1877 _____________P -1 32.3498 -36.0569 TS 60 8 31
1852271N15328 1852 12 NA NA NOT_NAMED 1852-10-03 12:00:00 TS 32.7000 -35.8000 main 1879 1858 _____________O -1 32.7000 -35.8000 TS 60 9 34
1852271N15328 1852 12 NA NA NOT_NAMED 1852-10-03 15:00:00 TS 33.0926 -35.4576 main 1860 1834 _____________P -1 33.0926 -35.4576 TS 60 10 36
1852271N15328 1852 12 NA NA NOT_NAMED 1852-10-03 18:00:00 TS 33.5000 -35.1000 main 1834 1815 _____________O -1 33.5000 -35.1000 TS 60 10 34
1852271N15328 1852 12 NA NA NOT_NAMED 1852-10-03 21:00:00 TS 33.8848 -34.8067 main 1818 1804 _____________P -1 33.8848 -34.8067 TS 60 9 32
1852271N15328 1852 12 NA NA NOT_NAMED 1852-10-04 00:00:00 TS 34.3000 -34.5000 main 1804 1783 _____________O -1 34.3000 -34.5000 TS 60 10 33
1852271N15328 1852 12 NA NA NOT_NAMED 1852-10-04 03:00:00 TS 34.7625 -34.1146 main 1786 1767 _____________P -1 34.7625 -34.1146 TS 62 12 33
1852271N15328 1852 12 NA NA NOT_NAMED 1852-10-04 06:00:00 TS 35.3000 -33.7000 main 1771 1763 _____________O -1 35.3000 -33.7000 HU 65 14 30
1852271N15328 1852 12 NA NA NOT_NAMED 1852-10-04 09:00:00 TS 35.9349 -33.2998 main 1764 1758 _____________P -1 35.9349 -33.2998 HU 65 15 27
1852271N15328 1852 12 NA NA NOT_NAMED 1852-10-04 12:00:00 TS 36.6000 -32.9000 main 1765 1762 _____________O -1 36.6000 -32.9000 HU 65 13 24
1852271N15328 1852 12 NA NA NOT_NAMED 1852-10-04 15:00:00 TS 37.1675 -32.6293 main 1773 1770 _____________P -1 37.1675 -32.6293 HU 65 14 28
1852271N15328 1852 12 NA NA NOT_NAMED 1852-10-04 18:00:00 TS 37.8000 -32.1000 main 1770 1728 _____________O -1 37.8000 -32.1000 HU 65 18 47
1852271N15328 1852 12 NA NA NOT_NAMED 1852-10-04 21:00:00 TS 38.4043 -30.9521 main 1728 1701 _____________P -1 38.4043 -30.9521 HU 60 26 50
1852271N15328 1852 12 NA NA NOT_NAMED 1852-10-05 00:00:00 TS 39.5000 -29.5000 main 1707 1550 _____________O -1 39.5000 -29.5000 TS 55 38 36
1852271N15328 1852 12 NA NA NOT_NAMED 1852-10-05 03:00:00 TS 41.4847 -28.0268 main 1539 1392 _____________P -1 41.4847 -28.0268 TS 52 50 27
1852271N15328 1852 12 NA NA NOT_NAMED 1852-10-05 06:00:00 ET 44.0000 -26.5000 main 1384 _____________O -1 44.0000 -26.5000 EX 50 55 24

IBTrACS Databaseについて

本データベースは、米国NOAAが公開する1842年以降の世界の熱帯低気圧のベストトラックデータアーカイブInternational Best Track Archive for Climate Stewardship (IBTrACS)を、ウェブで閲覧しやすい形式に変換したものです。

最終更新日:2021-10-19